sensor_id;sensor_type;location;lat;lon;timestamp;pressure;altitude;pressure_sealevel;temperature;humidity
11808;BME280;5961;42.640;23.380;2023-09-08T00:00:51;94598.13;;;20.38;87.89
11808;BME280;5961;42.640;23.380;2023-09-08T00:03:18;94619.00;;;20.48;88.20
11808;BME280;5961;42.640;23.380;2023-09-08T00:05:47;94615.88;;;20.39;88.70
11808;BME280;5961;42.640;23.380;2023-09-08T00:08:13;94613.56;;;20.30;89.38
11808;BME280;5961;42.640;23.380;2023-09-08T00:10:41;94620.88;;;20.30;88.60
11808;BME280;5961;42.640;23.380;2023-09-08T00:13:08;94608.84;;;20.23;88.51
11808;BME280;5961;42.640;23.380;2023-09-08T00:15:36;94616.53;;;20.18;88.56
11808;BME280;5961;42.640;23.380;2023-09-08T00:18:04;94610.38;;;20.17;88.19
11808;BME280;5961;42.640;23.380;2023-09-08T00:20:30;94613.47;;;20.23;88.23
11808;BME280;5961;42.640;23.380;2023-09-08T00:22:57;94603.06;;;20.21;87.50
11808;BME280;5961;42.640;23.380;2023-09-08T00:25:24;94602.69;;;20.23;86.52
11808;BME280;5961;42.640;23.380;2023-09-08T00:27:52;94606.22;;;20.34;86.25
11808;BME280;5961;42.640;23.380;2023-09-08T00:30:19;94613.19;;;20.39;85.61
11808;BME280;5961;42.640;23.380;2023-09-08T00:32:45;94608.97;;;20.45;85.01
11808;BME280;5961;42.640;23.380;2023-09-08T00:35:12;94608.22;;;20.48;84.00
11808;BME280;5961;42.640;23.380;2023-09-08T00:37:39;94614.00;;;20.50;83.00
11808;BME280;5961;42.640;23.380;2023-09-08T00:40:07;94590.84;;;20.42;81.84
11808;BME280;5961;42.640;23.380;2023-09-08T00:42:34;94611.72;;;20.59;80.99
11808;BME280;5961;42.640;23.380;2023-09-08T00:45:02;94592.44;;;20.57;81.05
11808;BME280;5961;42.640;23.380;2023-09-08T00:47:30;94573.84;;;20.41;79.40
11808;BME280;5961;42.640;23.380;2023-09-08T00:49:57;94597.84;;;20.64;79.27
11808;BME280;5961;42.640;23.380;2023-09-08T00:52:24;94576.59;;;20.48;78.15
11808;BME280;5961;42.640;23.380;2023-09-08T00:54:56;94602.09;;;20.65;77.95
11808;BME280;5961;42.640;23.380;2023-09-08T00:57:23;94591.28;;;20.65;78.07
11808;BME280;5961;42.640;23.380;2023-09-08T00:59:50;94582.81;;;20.63;78.05
11808;BME280;5961;42.640;23.380;2023-09-08T01:02:18;94602.88;;;20.65;78.07
11808;BME280;5961;42.640;23.380;2023-09-08T01:04:45;94599.75;;;20.60;78.13
11808;BME280;5961;42.640;23.380;2023-09-08T01:07:13;94585.88;;;20.65;77.92
11808;BME280;5961;42.640;23.380;2023-09-08T01:09:40;94601.69;;;20.59;77.98
11808;BME280;5961;42.640;23.380;2023-09-08T01:12:08;94571.50;;;20.29;77.98
11808;BME280;5961;42.640;23.380;2023-09-08T01:14:35;94576.19;;;20.39;78.37
11808;BME280;5961;42.640;23.380;2023-09-08T01:17:01;94596.63;;;20.47;78.64
11808;BME280;5961;42.640;23.380;2023-09-08T01:19:30;94592.00;;;20.44;78.33
11808;BME280;5961;42.640;23.380;2023-09-08T01:22:11;94586.16;;;20.32;79.09
11808;BME280;5961;42.640;23.380;2023-09-08T01:25:05;94586.53;;;20.27;79.04
11808;BME280;5961;42.640;23.380;2023-09-08T01:27:35;94577.59;;;20.19;79.44
11808;BME280;5961;42.640;23.380;2023-09-08T01:30:03;94547.84;;;20.05;79.49
11808;BME280;5961;42.640;23.380;2023-09-08T01:32:30;94596.59;;;20.33;79.89
11808;BME280;5961;42.640;23.380;2023-09-08T01:34:59;94586.97;;;20.36;80.15
11808;BME280;5961;42.640;23.380;2023-09-08T01:37:26;94571.47;;;20.25;80.18
11808;BME280;5961;42.640;23.380;2023-09-08T01:39:52;94587.75;;;20.43;80.10
11808;BME280;5961;42.640;23.380;2023-09-08T01:42:20;94578.13;;;20.42;80.14
11808;BME280;5961;42.640;23.380;2023-09-08T01:44:47;94575.03;;;20.47;79.98
11808;BME280;5961;42.640;23.380;2023-09-08T01:47:14;94584.69;;;20.48;80.11
11808;BME280;5961;42.640;23.380;2023-09-08T01:49:40;94584.31;;;20.53;80.07
11808;BME280;5961;42.640;23.380;2023-09-08T01:52:07;94585.09;;;20.54;80.10
11808;BME280;5961;42.640;23.380;2023-09-08T01:54:34;94586.63;;;20.58;80.34
11808;BME280;5961;42.640;23.380;2023-09-08T01:57:01;94590.53;;;20.61;80.43
11808;BME280;5961;42.640;23.380;2023-09-08T01:59:29;94578.94;;;20.60;80.39
11808;BME280;5961;42.640;23.380;2023-09-08T02:01:55;94541.47;;;20.41;80.47
11808;BME280;5961;42.640;23.380;2023-09-08T02:04:22;94582.03;;;20.62;81.02
11808;BME280;5961;42.640;23.380;2023-09-08T02:06:49;94578.19;;;20.63;81.39
11808;BME280;5961;42.640;23.380;2023-09-08T02:09:16;94582.03;;;20.66;81.66
11808;BME280;5961;42.640;23.380;2023-09-08T02:11:42;94574.69;;;20.63;81.91
11808;BME280;5961;42.640;23.380;2023-09-08T02:14:09;94580.88;;;20.67;82.45
11808;BME280;5961;42.640;23.380;2023-09-08T02:16:37;94538.38;;;20.43;82.64
11808;BME280;5961;42.640;23.380;2023-09-08T02:19:05;94572.38;;;20.65;82.75
11808;BME280;5961;42.640;23.380;2023-09-08T02:21:31;94558.09;;;20.57;82.95
11808;BME280;5961;42.640;23.380;2023-09-08T02:23:58;94549.94;;;20.47;83.06
11808;BME280;5961;42.640;23.380;2023-09-08T02:26:25;94557.69;;;20.55;83.49
11808;BME280;5961;42.640;23.380;2023-09-08T02:28:52;94544.16;;;20.38;83.90
11808;BME280;5961;42.640;23.380;2023-09-08T02:31:19;94558.03;;;20.43;83.99
11808;BME280;5961;42.640;23.380;2023-09-08T02:33:47;94554.94;;;20.34;84.38
11808;BME280;5961;42.640;23.380;2023-09-08T02:36:14;94544.16;;;20.38;84.93
11808;BME280;5961;42.640;23.380;2023-09-08T02:38:40;94551.09;;;20.35;84.90
11808;BME280;5961;42.640;23.380;2023-09-08T02:41:07;94548.34;;;20.28;84.69
11808;BME280;5961;42.640;23.380;2023-09-08T02:43:34;94527.44;;;20.07;85.21
11808;BME280;5961;42.640;23.380;2023-09-08T02:46:00;94544.84;;;20.20;85.14
11808;BME280;5961;42.640;23.380;2023-09-08T02:48:27;94549.84;;;20.18;85.39
11808;BME280;5961;42.640;23.380;2023-09-08T02:50:55;94548.69;;;20.19;85.28
11808;BME280;5961;42.640;23.380;2023-09-08T02:53:23;94509.28;;;19.94;85.49
11808;BME280;5961;42.640;23.380;2023-09-08T02:55:54;94546.38;;;20.18;85.59
11808;BME280;5961;42.640;23.380;2023-09-08T02:58:20;94543.66;;;20.14;85.76
11808;BME280;5961;42.640;23.380;2023-09-08T03:00:47;94546.34;;;20.14;85.89
11808;BME280;5961;42.640;23.380;2023-09-08T03:03:14;94541.75;;;20.15;86.34
11808;BME280;5961;42.640;23.380;2023-09-08T03:05:41;94537.13;;;20.15;86.54
11808;BME280;5961;42.640;23.380;2023-09-08T03:08:09;94508.88;;;19.95;86.38
11808;BME280;5961;42.640;23.380;2023-09-08T03:10:36;94515.06;;;19.99;86.79
11808;BME280;5961;42.640;23.380;2023-09-08T03:13:03;94540.97;;;20.14;87.34
11808;BME280;5961;42.640;23.380;2023-09-08T03:15:29;94541.75;;;20.18;87.91
11808;BME280;5961;42.640;23.380;2023-09-08T03:17:56;94533.25;;;20.16;88.26
11808;BME280;5961;42.640;23.380;2023-09-08T03:20:25;94539.41;;;20.17;88.47
11808;BME280;5961;42.640;23.380;2023-09-08T03:22:52;94483.00;;;19.80;88.68
11808;BME280;5961;42.640;23.380;2023-09-08T03:25:20;94542.50;;;20.15;88.73
11808;BME280;5961;42.640;23.380;2023-09-08T03:27:47;94533.25;;;20.16;88.73
11808;BME280;5961;42.640;23.380;2023-09-08T03:30:14;94543.69;;;20.18;88.88
11808;BME280;5961;42.640;23.380;2023-09-08T03:32:41;94540.56;;;20.16;88.86
11808;BME280;5961;42.640;23.380;2023-09-08T03:35:08;94552.53;;;20.15;89.30
11808;BME280;5961;42.640;23.380;2023-09-08T03:37:35;94544.03;;;20.09;89.66
11808;BME280;5961;42.640;23.380;2023-09-08T03:40:02;94537.06;;;20.05;89.39
11808;BME280;5961;42.640;23.380;2023-09-08T03:42:32;94534.31;;;19.98;89.60
11808;BME280;5961;42.640;23.380;2023-09-08T03:45:00;94548.63;;;20.02;89.22
11808;BME280;5961;42.640;23.380;2023-09-08T03:47:26;94548.22;;;19.96;89.53
11808;BME280;5961;42.640;23.380;2023-09-08T03:49:53;94547.41;;;19.92;89.89
11808;BME280;5961;42.640;23.380;2023-09-08T03:52:20;94544.69;;;19.85;90.33
11808;BME280;5961;42.640;23.380;2023-09-08T03:54:46;94534.63;;;19.75;90.68
11808;BME280;5961;42.640;23.380;2023-09-08T03:57:13;94538.38;;;19.60;91.44
11808;BME280;5961;42.640;23.380;2023-09-08T03:59:41;94542.91;;;19.42;92.64
11808;BME280;5961;42.640;23.380;2023-09-08T04:02:08;94527.66;;;19.12;94.10
11808;BME280;5961;42.640;23.380;2023-09-08T04:04:36;94541.41;;;19.04;95.79
11808;BME280;5961;42.640;23.380;2023-09-08T04:07:03;94542.44;;;18.89;97.01
11808;BME280;5961;42.640;23.380;2023-09-08T04:09:29;94541.22;;;18.79;97.46
11808;BME280;5961;42.640;23.380;2023-09-08T04:11:57;94535.69;;;18.65;97.92
11808;BME280;5961;42.640;23.380;2023-09-08T04:14:23;94520.47;;;18.43;98.56
11808;BME280;5961;42.640;23.380;2023-09-08T04:16:54;94541.31;;;18.49;99.27
11808;BME280;5961;42.640;23.380;2023-09-08T04:19:20;94530.41;;;18.39;99.84
11808;BME280;5961;42.640;23.380;2023-09-08T04:21:47;94542.31;;;18.38;100.00
11808;BME280;5961;42.640;23.380;2023-09-08T04:24:14;94548.03;;;18.33;100.00
11808;BME280;5961;42.640;23.380;2023-09-08T04:26:40;94553.38;;;18.29;100.00
11808;BME280;5961;42.640;23.380;2023-09-08T04:29:07;94546.88;;;18.30;100.00
11808;BME280;5961;42.640;23.380;2023-09-08T04:31:34;94556.84;;;18.30;99.85
11808;BME280;5961;42.640;23.380;2023-09-08T04:34:02;94547.22;;;18.29;99.76
11808;BME280;5961;42.640;23.380;2023-09-08T04:36:28;94554.97;;;18.34;99.75
11808;BME280;5961;42.640;23.380;2023-09-08T04:38:55;94558.81;;;18.33;99.55
11808;BME280;5961;42.640;23.380;2023-09-08T04:41:22;94563.03;;;18.34;99.48
11808;BME280;5961;42.640;23.380;2023-09-08T04:43:49;94560.75;;;18.36;99.02
11808;BME280;5961;42.640;23.380;2023-09-08T04:46:15;94561.16;;;18.38;99.34
11808;BME280;5961;42.640;23.380;2023-09-08T04:48:42;94558.91;;;18.43;99.09
11808;BME280;5961;42.640;23.380;2023-09-08T04:51:10;94555.84;;;18.45;98.29
11808;BME280;5961;42.640;23.380;2023-09-08T04:53:37;94563.63;;;18.50;97.62
11808;BME280;5961;42.640;23.380;2023-09-08T04:56:04;94563.69;;;18.57;96.88
11808;BME280;5961;42.640;23.380;2023-09-08T04:58:30;94561.44;;;18.62;95.96
11808;BME280;5961;42.640;23.380;2023-09-08T05:00:57;94564.47;;;18.57;95.96
11808;BME280;5961;42.640;23.380;2023-09-08T05:03:24;94566.78;;;18.59;95.75
11808;BME280;5961;42.640;23.380;2023-09-08T05:05:51;94544.47;;;18.55;96.74
11808;BME280;5961;42.640;23.380;2023-09-08T05:08:19;94551.50;;;18.67;100.00
11808;BME280;5961;42.640;23.380;2023-09-08T05:10:46;94561.53;;;18.70;96.74
11808;BME280;5961;42.640;23.380;2023-09-08T05:13:12;94563.13;;;18.78;98.29
11808;BME280;5961;42.640;23.380;2023-09-08T05:15:39;94552.47;;;18.88;100.00
11808;BME280;5961;42.640;23.380;2023-09-08T05:18:08;94550.19;;;18.94;96.90
11808;BME280;5961;42.640;23.380;2023-09-08T05:20:35;94570.22;;;18.96;94.63
11808;BME280;5961;42.640;23.380;2023-09-08T05:23:01;94571.81;;;19.04;94.60
11808;BME280;5961;42.640;23.380;2023-09-08T05:25:29;94534.34;;;18.85;94.11
11808;BME280;5961;42.640;23.380;2023-09-08T05:27:56;94565.31;;;19.05;93.36
11808;BME280;5961;42.640;23.380;2023-09-08T05:30:23;94534.00;;;18.90;92.74
11808;BME280;5961;42.640;23.380;2023-09-08T05:32:49;94536.34;;;18.95;92.75
11808;BME280;5961;42.640;23.380;2023-09-08T05:35:16;94566.19;;;19.20;92.73
11808;BME280;5961;42.640;23.380;2023-09-08T05:37:43;94567.41;;;19.30;92.13
11808;BME280;5961;42.640;23.380;2023-09-08T05:40:10;94570.56;;;19.39;92.12
11808;BME280;5961;42.640;23.380;2023-09-08T05:42:38;94569.06;;;19.41;91.14
11808;BME280;5961;42.640;23.380;2023-09-08T05:45:06;94581.50;;;19.56;90.19
11808;BME280;5961;42.640;23.380;2023-09-08T05:47:32;94583.84;;;19.65;89.35
11808;BME280;5961;42.640;23.380;2023-09-08T05:50:01;94581.56;;;19.70;88.48
11808;BME280;5961;42.640;23.380;2023-09-08T05:52:27;94572.38;;;19.75;88.30
11808;BME280;5961;42.640;23.380;2023-09-08T05:54:54;94584.75;;;19.87;88.10
11808;BME280;5961;42.640;23.380;2023-09-08T05:57:21;94575.56;;;19.91;87.85
11808;BME280;5961;42.640;23.380;2023-09-08T05:59:49;94578.28;;;19.98;87.26
11808;BME280;5961;42.640;23.380;2023-09-08T06:02:15;94584.09;;;20.07;86.77
11808;BME280;5961;42.640;23.380;2023-09-08T06:04:42;94583.34;;;20.14;86.70
11808;BME280;5961;42.640;23.380;2023-09-08T06:07:09;94579.56;;;20.25;85.71
11808;BME280;5961;42.640;23.380;2023-09-08T06:09:36;94588.84;;;20.32;83.47
11808;BME280;5961;42.640;23.380;2023-09-08T06:12:03;94590.41;;;20.33;83.12
11808;BME280;5961;42.640;23.380;2023-09-08T06:14:30;94591.22;;;20.44;83.15
11808;BME280;5961;42.640;23.380;2023-09-08T06:16:58;94589.69;;;20.46;79.93
11808;BME280;5961;42.640;23.380;2023-09-08T06:19:25;94589.72;;;20.53;80.00
11808;BME280;5961;42.640;23.380;2023-09-08T06:21:51;94584.31;;;20.53;78.40
11808;BME280;5961;42.640;23.380;2023-09-08T06:24:18;94589.75;;;20.64;77.09
11808;BME280;5961;42.640;23.380;2023-09-08T06:26:45;94597.84;;;20.67;75.66
11808;BME280;5961;42.640;23.380;2023-09-08T06:29:12;94619.09;;;20.76;74.52
11808;BME280;5961;42.640;23.380;2023-09-08T06:31:38;94594.03;;;20.83;72.81
11808;BME280;5961;42.640;23.380;2023-09-08T06:34:07;94602.50;;;20.88;71.47
11808;BME280;5961;42.640;23.380;2023-09-08T06:36:33;94605.63;;;20.94;70.51
11808;BME280;5961;42.640;23.380;2023-09-08T06:39:00;94573.56;;;20.78;70.75
11808;BME280;5961;42.640;23.380;2023-09-08T06:41:27;94596.38;;;20.98;70.51
11808;BME280;5961;42.640;23.380;2023-09-08T06:43:54;94609.91;;;21.12;69.39
11808;BME280;5961;42.640;23.380;2023-09-08T06:46:20;94607.22;;;21.16;68.66
11808;BME280;5961;42.640;23.380;2023-09-08T06:48:47;94609.94;;;21.26;68.55
11808;BME280;5961;42.640;23.380;2023-09-08T06:51:15;94604.13;;;21.24;67.80
11808;BME280;5961;42.640;23.380;2023-09-08T06:53:43;94576.72;;;21.15;67.90
11808;BME280;5961;42.640;23.380;2023-09-08T06:56:10;94610.72;;;21.38;67.17
11808;BME280;5961;42.640;23.380;2023-09-08T06:58:36;94611.47;;;21.49;66.90
11808;BME280;5961;42.640;23.380;2023-09-08T07:01:03;94609.16;;;21.58;66.76
11808;BME280;5961;42.640;23.380;2023-09-08T07:03:31;94523.78;;;21.07;66.38
11808;BME280;5961;42.640;23.380;2023-09-08T07:06:02;94615.34;;;21.69;66.51
11808;BME280;5961;42.640;23.380;2023-09-08T07:08:30;94589.84;;;21.56;65.06
11808;BME280;5961;42.640;23.380;2023-09-08T07:10:57;94612.25;;;21.77;64.23
11808;BME280;5961;42.640;23.380;2023-09-08T07:13:23;94609.91;;;21.83;64.57
11808;BME280;5961;42.640;23.380;2023-09-08T07:15:50;94610.69;;;21.87;63.77
11808;BME280;5961;42.640;23.380;2023-09-08T07:18:17;94610.72;;;21.91;64.07
11808;BME280;5961;42.640;23.380;2023-09-08T07:20:46;94610.69;;;21.94;63.97
11808;BME280;5961;42.640;23.380;2023-09-08T07:23:13;94605.28;;;21.94;63.71
11808;BME280;5961;42.640;23.380;2023-09-08T07:25:45;94606.81;;;22.02;63.77
11808;BME280;5961;42.640;23.380;2023-09-08T07:28:12;94596.78;;;21.92;64.13
11808;BME280;5961;42.640;23.380;2023-09-08T07:30:38;94606.41;;;22.07;64.20
11808;BME280;5961;42.640;23.380;2023-09-08T07:33:05;94608.69;;;22.12;64.43
11808;BME280;5961;42.640;23.380;2023-09-08T07:35:32;94600.19;;;22.17;64.00
11808;BME280;5961;42.640;23.380;2023-09-08T07:37:58;94602.91;;;22.21;63.32
11808;BME280;5961;42.640;23.380;2023-09-08T07:40:25;94604.41;;;22.25;63.62
11808;BME280;5961;42.640;23.380;2023-09-08T07:42:53;94593.22;;;22.23;62.55
11808;BME280;5961;42.640;23.380;2023-09-08T07:45:20;94605.94;;;22.33;61.97
11808;BME280;5961;42.640;23.380;2023-09-08T07:47:47;94602.84;;;22.31;62.11
11808;BME280;5961;42.640;23.380;2023-09-08T07:50:19;94606.69;;;22.41;62.73
11808;BME280;5961;42.640;23.380;2023-09-08T07:52:46;94596.22;;;22.39;62.96
11808;BME280;5961;42.640;23.380;2023-09-08T07:55:13;94570.78;;;22.26;62.68
11808;BME280;5961;42.640;23.380;2023-09-08T07:57:41;94603.56;;;22.50;61.40
11808;BME280;5961;42.640;23.380;2023-09-08T08:00:10;94607.41;;;22.56;61.43
11808;BME280;5961;42.640;23.380;2023-09-08T08:02:37;94598.84;;;22.61;61.31
11808;BME280;5961;42.640;23.380;2023-09-08T08:05:05;94602.72;;;22.67;60.29
11808;BME280;5961;42.640;23.380;2023-09-08T08:07:32;94603.09;;;22.72;59.36
11808;BME280;5961;42.640;23.380;2023-09-08T08:09:59;94597.28;;;22.74;58.23
11808;BME280;5961;42.640;23.380;2023-09-08T08:12:26;94598.75;;;22.82;59.05
11808;BME280;5961;42.640;23.380;2023-09-08T08:14:52;94595.25;;;22.85;58.20
11808;BME280;5961;42.640;23.380;2023-09-08T08:17:20;94586.75;;;22.86;57.37
11808;BME280;5961;42.640;23.380;2023-09-08T08:19:47;94592.16;;;22.86;58.17
11808;BME280;5961;42.640;23.380;2023-09-08T08:22:14;94599.50;;;22.93;58.43
11808;BME280;5961;42.640;23.380;2023-09-08T08:24:40;94597.16;;;22.95;56.16
11808;BME280;5961;42.640;23.380;2023-09-08T08:27:07;94594.00;;;23.00;57.01
11808;BME280;5961;42.640;23.380;2023-09-08T08:29:34;94591.66;;;23.06;56.81
11808;BME280;5961;42.640;23.380;2023-09-08T08:32:01;94564.63;;;22.91;54.58
11808;BME280;5961;42.640;23.380;2023-09-08T08:34:29;94592.38;;;23.13;54.56
11808;BME280;5961;42.640;23.380;2023-09-08T08:36:56;94554.97;;;22.90;55.03
11808;BME280;5961;42.640;23.380;2023-09-08T08:39:22;94526.78;;;22.81;52.45
11808;BME280;5961;42.640;23.380;2023-09-08T08:41:49;94572.16;;;23.21;53.14
11808;BME280;5961;42.640;23.380;2023-09-08T08:44:17;94583.78;;;23.25;51.69
11808;BME280;5961;42.640;23.380;2023-09-08T08:46:45;94577.56;;;23.28;51.93
11808;BME280;5961;42.640;23.380;2023-09-08T08:49:14;94574.47;;;23.26;53.13
11808;BME280;5961;42.640;23.380;2023-09-08T08:51:44;94568.31;;;23.19;53.04
11808;BME280;5961;42.640;23.380;2023-09-08T08:54:12;94549.41;;;23.12;53.18
11808;BME280;5961;42.640;23.380;2023-09-08T08:56:41;94571.31;;;23.31;52.18
11808;BME280;5961;42.640;23.380;2023-09-08T08:59:09;94568.63;;;23.31;53.76
11808;BME280;5961;42.640;23.380;2023-09-08T09:01:36;94587.56;;;23.38;55.32
11808;BME280;5961;42.640;23.380;2023-09-08T09:04:05;94565.09;;;23.41;55.91
11808;BME280;5961;42.640;23.380;2023-09-08T09:06:32;94521.84;;;23.20;56.32
11808;BME280;5961;42.640;23.380;2023-09-08T09:09:01;94570.34;;;23.59;53.65
11808;BME280;5961;42.640;23.380;2023-09-08T09:11:29;94576.84;;;23.69;52.85
11808;BME280;5961;42.640;23.380;2023-09-08T09:13:56;94572.53;;;23.75;53.09
11808;BME280;5961;42.640;23.380;2023-09-08T09:16:23;94570.56;;;23.75;52.98
11808;BME280;5961;42.640;23.380;2023-09-08T09:18:54;94570.53;;;23.79;52.62
11808;BME280;5961;42.640;23.380;2023-09-08T09:21:22;94566.25;;;23.81;52.60
11808;BME280;5961;42.640;23.380;2023-09-08T09:23:49;94578.63;;;23.86;51.82
11808;BME280;5961;42.640;23.380;2023-09-08T09:26:24;94571.56;;;23.92;52.79
11808;BME280;5961;42.640;23.380;2023-09-08T09:28:51;94565.69;;;23.97;52.11
11808;BME280;5961;42.640;23.380;2023-09-08T09:31:23;94555.22;;;23.99;50.16
11808;BME280;5961;42.640;23.380;2023-09-08T09:34:01;94480.47;;;23.54;51.70
11808;BME280;5961;42.640;23.380;2023-09-08T09:36:28;94540.59;;;23.89;49.86
11808;BME280;5961;42.640;23.380;2023-09-08T09:38:58;94566.75;;;24.07;50.91
11808;BME280;5961;42.640;23.380;2023-09-08T09:41:27;94559.75;;;24.13;49.81
11808;BME280;5961;42.640;23.380;2023-09-08T09:43:55;94552.69;;;24.19;50.38
11808;BME280;5961;42.640;23.380;2023-09-08T09:46:21;94559.22;;;24.25;49.90
11808;BME280;5961;42.640;23.380;2023-09-08T09:48:50;94565.69;;;24.34;49.46
11808;BME280;5961;42.640;23.380;2023-09-08T09:51:19;94511.66;;;24.06;49.37
11808;BME280;5961;42.640;23.380;2023-09-08T09:53:46;94557.91;;;24.36;50.06
11808;BME280;5961;42.640;23.380;2023-09-08T09:56:14;94560.53;;;24.43;50.52
11808;BME280;5961;42.640;23.380;2023-09-08T09:58:43;94557.91;;;24.36;49.09
11808;BME280;5961;42.640;23.380;2023-09-08T10:01:11;94554.28;;;24.46;49.18
11808;BME280;5961;42.640;23.380;2023-09-08T10:03:38;94551.94;;;24.48;49.83
11808;BME280;5961;42.640;23.380;2023-09-08T10:06:06;94544.16;;;24.50;48.71
11808;BME280;5961;42.640;23.380;2023-09-08T10:08:34;94522.16;;;24.41;52.05
11808;BME280;5961;42.640;23.380;2023-09-08T10:11:05;94538.16;;;24.63;50.01
11808;BME280;5961;42.640;23.380;2023-09-08T10:13:38;94550.06;;;24.72;48.74
11808;BME280;5961;42.640;23.380;2023-09-08T10:16:08;94541.81;;;24.79;51.11
11808;BME280;5961;42.640;23.380;2023-09-08T10:18:35;94536.31;;;24.86;51.56
11808;BME280;5961;42.640;23.380;2023-09-08T10:21:03;94532.34;;;24.91;49.96
11808;BME280;5961;42.640;23.380;2023-09-08T10:23:35;94525.38;;;24.90;51.01
11808;BME280;5961;42.640;23.380;2023-09-08T10:26:05;94519.47;;;24.95;52.12
11808;BME280;5961;42.640;23.380;2023-09-08T10:28:34;94523.78;;;24.92;51.13
11808;BME280;5961;42.640;23.380;2023-09-08T10:31:02;94527.69;;;24.91;49.86
11808;BME280;5961;42.640;23.380;2023-09-08T10:33:31;94533.13;;;24.91;51.04
11808;BME280;5961;42.640;23.380;2023-09-08T10:35:58;94531.16;;;24.92;50.43
11808;BME280;5961;42.640;23.380;2023-09-08T10:38:31;94517.38;;;24.76;50.78
11808;BME280;5961;42.640;23.380;2023-09-08T10:41:26;94483.00;;;24.66;50.92
11808;BME280;5961;42.640;23.380;2023-09-08T10:43:55;94522.53;;;24.97;51.21
11808;BME280;5961;42.640;23.380;2023-09-08T10:46:23;94527.53;;;25.02;51.33
11808;BME280;5961;42.640;23.380;2023-09-08T10:48:54;94486.72;;;24.75;51.31
11808;BME280;5961;42.640;23.380;2023-09-08T10:51:22;94526.84;;;24.94;50.73
11808;BME280;5961;42.640;23.380;2023-09-08T10:53:49;94527.78;;;24.84;50.83
11808;BME280;5961;42.640;23.380;2023-09-08T10:56:16;94535.09;;;24.87;51.23
11808;BME280;5961;42.640;23.380;2023-09-08T10:58:43;94523.47;;;24.87;52.26
11808;BME280;5961;42.640;23.380;2023-09-08T11:01:17;94528.97;;;24.80;52.55
11808;BME280;5961;42.640;23.380;2023-09-08T11:03:45;94529.47;;;24.75;51.91
11808;BME280;5961;42.640;23.380;2023-09-08T11:06:15;94520.81;;;24.83;51.99
11808;BME280;5961;42.640;23.380;2023-09-08T11:08:42;94515.72;;;24.85;51.54
11808;BME280;5961;42.640;23.380;2023-09-08T11:11:10;94520.38;;;24.85;51.63
11808;BME280;5961;42.640;23.380;2023-09-08T11:13:37;94517.66;;;24.85;52.57
11808;BME280;5961;42.640;23.380;2023-09-08T11:16:05;94515.78;;;24.78;52.08
11808;BME280;5961;42.640;23.380;2023-09-08T11:18:33;94495.91;;;24.58;52.91
11808;BME280;5961;42.640;23.380;2023-09-08T11:21:01;94515.94;;;24.68;53.18
11808;BME280;5961;42.640;23.380;2023-09-08T11:23:30;94517.94;;;24.64;53.41
11808;BME280;5961;42.640;23.380;2023-09-08T11:25:57;94516.09;;;24.57;53.70
11808;BME280;5961;42.640;23.380;2023-09-08T11:28:24;94515.78;;;24.51;53.15
11808;BME280;5961;42.640;23.380;2023-09-08T11:30:54;94499.63;;;24.41;53.54
11808;BME280;5961;42.640;23.380;2023-09-08T11:33:22;94511.94;;;24.49;54.05
11808;BME280;5961;42.640;23.380;2023-09-08T11:35:51;94469.53;;;24.28;53.93
11808;BME280;5961;42.640;23.380;2023-09-08T11:38:19;94514.25;;;24.50;54.67
11808;BME280;5961;42.640;23.380;2023-09-08T11:40:47;94449.56;;;24.12;55.37
11808;BME280;5961;42.640;23.380;2023-09-08T11:43:14;94501.81;;;24.53;53.75
11808;BME280;5961;42.640;23.380;2023-09-08T11:45:42;94495.50;;;24.60;54.11
11808;BME280;5961;42.640;23.380;2023-09-08T11:48:10;94489.16;;;24.66;53.58
11808;BME280;5961;42.640;23.380;2023-09-08T11:50:36;94495.75;;;24.69;53.74
11808;BME280;5961;42.640;23.380;2023-09-08T11:53:03;94445.31;;;24.41;53.51
11808;BME280;5961;42.640;23.380;2023-09-08T11:55:31;94490.31;;;24.95;52.76
11808;BME280;5961;42.640;23.380;2023-09-08T11:57:59;94483.03;;;24.89;52.82
11808;BME280;5961;42.640;23.380;2023-09-08T12:00:27;94488.50;;;24.89;52.70
11808;BME280;5961;42.640;23.380;2023-09-08T12:02:54;94485.75;;;24.89;52.25
11808;BME280;5961;42.640;23.380;2023-09-08T12:05:24;94492.66;;;24.93;52.63
11808;BME280;5961;42.640;23.380;2023-09-08T12:07:51;94489.56;;;24.95;52.74
11808;BME280;5961;42.640;23.380;2023-09-08T12:10:18;94488.44;;;24.92;52.17
11808;BME280;5961;42.640;23.380;2023-09-08T12:12:45;94467.34;;;24.73;53.40
11808;BME280;5961;42.640;23.380;2023-09-08T12:15:29;94488.50;;;24.89;54.10
11808;BME280;5961;42.640;23.380;2023-09-08T12:17:57;94481.44;;;24.91;52.32
11808;BME280;5961;42.640;23.380;2023-09-08T12:20:23;94474.19;;;25.08;50.75
11808;BME280;5961;42.640;23.380;2023-09-08T12:22:50;94474.13;;;25.35;51.39
11808;BME280;5961;42.640;23.380;2023-09-08T12:25:18;94463.66;;;25.56;49.59
11808;BME280;5961;42.640;23.380;2023-09-08T12:27:46;94469.41;;;25.82;49.17
11808;BME280;5961;42.640;23.380;2023-09-08T12:30:21;94430.09;;;25.63;47.27
11808;BME280;5961;42.640;23.380;2023-09-08T12:32:56;94460.59;;;25.94;48.25
11808;BME280;5961;42.640;23.380;2023-09-08T12:35:24;94455.84;;;25.98;47.22
11808;BME280;5961;42.640;23.380;2023-09-08T12:37:58;94455.34;;;26.03;46.67
11808;BME280;5961;42.640;23.380;2023-09-08T12:40:26;94462.84;;;26.18;47.36
11808;BME280;5961;42.640;23.380;2023-09-08T12:42:53;94456.81;;;26.27;46.05
11808;BME280;5961;42.640;23.380;2023-09-08T12:45:22;94465.72;;;26.47;46.04
11808;BME280;5961;42.640;23.380;2023-09-08T12:47:49;94445.28;;;26.39;45.67
11808;BME280;5961;42.640;23.380;2023-09-08T12:50:16;94448.97;;;26.49;44.99
11808;BME280;5961;42.640;23.380;2023-09-08T12:52:43;94450.06;;;26.51;44.15
11808;BME280;5961;42.640;23.380;2023-09-08T12:55:10;94444.59;;;26.51;44.27
11808;BME280;5961;42.640;23.380;2023-09-08T12:57:36;94450.56;;;26.46;43.80
11808;BME280;5961;42.640;23.380;2023-09-08T13:00:04;94449.53;;;26.40;44.56
11808;BME280;5961;42.640;23.380;2023-09-08T13:02:34;94441.53;;;26.13;44.53